Virtual Cathay Airport Information Service

Hong Kong International Airport

ICAO: VHHH Country: Hong Kong
Latitude: 22.3089 Longitude: 113.915
Latest Arrival : CRK453 (ZUUU-VHHH) Latest Departure : CPA767 (VHHH-VVTS)


WX CaptureLIVE
Data provided by noaa.gov | Fetched at 18:49:25

METAR : VHHH 201000Z 10012KT 9999 FEW040 26/17 Q1010 NOSIG

TAF : VHHH 200500Z 2006/2112 09010KT 9999 FEW020 TX27/2006Z TX29/2106Z TN22/2022Z TEMPO 2103/2109 27010KT


Runway Data for VHHH
Data provided by openaviationdata.com

Runway ID Mag Var Hdg Length Elevation Surface ILS Freq ILS Id ILS Slope
07L -2 72° 12431 ft 28 ft Asphalt 111.1 IZSL 3
07R -2 72° 12431 ft 28 ft Asphalt 109.3 ISR 3
25L -2 252° 12431 ft 28 ft Asphalt 108.9 IFL 3
25R -2 252° 12431 ft 28 ft Asphalt 110.9 ITFR 3

Hong Kong International Airport, Hong Kong
Use only for reference purposes



Not for navigational purposes.